x

Nantucket Sound (44020) Wave Buoy

12:50am - Fri 25th Apr 2014 All times are EDT. -4 hours from GMT.

  • Sig Wave height 3.0ft
  • Swell Direction
  • Peak Period 4s
  • Average Period 4s
  • Wind
    20mph, 22mph gusts
  • Sea Temp 45°f
  • Air Temp 48°f
  • Sea Pressure 1011.5mb
  • Nantucket Sound
  • Nantucket Sound

More Historic Weather Station data

Upgrade to MSW Pro to gain access to the past 30 days of data for over 8000 Wavebouys and Weather Stations around the globe.

Join Pro

Comparision Forecast

View Surf forecast
   
Fri 04/25 12:50am 3ft 4s 4s 20 22 mph 1011.5mb 45f 48f
Thu 04/24 11:50pm 3ft 4s 4s 22 27 mph 1011.4mb 46f 49f
10:50pm 3.5ft 4s 4s 22 27 mph 1011.1mb 46f 49f
9:50pm 3.5ft 4s 4s 22 27 mph 1010.6mb 46f 49f
8:50pm 3.5ft 4s 4s 20 25 mph 1009.6mb 46f 49f
7:50pm 3.5ft 4s 4s 25 31 mph 1007.9mb 46f 50f
6:50pm 3.5ft 4s 4s 27 34 mph 1006.3mb 46f 52f
5:50pm 3.5ft 4s 4s 22 27 mph 1005.5mb 46f 52f
4:50pm 3.5ft 4s 4s 22 29 mph 1004.4mb 46f 52f
3:50pm 3.5ft 4s 4s 20 27 mph 1003.8mb 46f 51f
2:50pm 3.5ft 4s 4s 22 27 mph 1003.6mb 46f 50f
1:50pm 3.5ft 4s 4s 20 25 mph 1003.8mb 45f 49f
12:50pm 3.5ft 5s 4s 18 22 mph 1004.1mb 45f 48f
11:50am 4ft 5s 4s 22 29 mph 1004mb 45f 46f
10:50am 4ft 5s 4s 25 29 mph 1003.6mb 46f 46f
9:50am 4.5ft 5s 4s 25 34 mph 1003mb 46f 45f
8:50am 4.5ft 5s 4s 25 31 mph 1003mb 46f 45f
7:50am 4.5ft 5s 4s 29 34 mph 1002.4mb 46f 44f
6:50am 4ft 4s 4s 29 38 mph 1001.8mb 46f 44f
5:50am 4ft 4s 4s 29 36 mph 1001.1mb 46f 45f
4:50am 3.5ft 4s 3s 29 34 mph 1000.4mb 46f 46f
3:50am 3.5ft 4s 4s 27 31 mph 1000mb 46f 46f
2:50am 3.5ft 4s 4s 29 36 mph 1000.1mb 46f 47f
1:50am 3.5ft 5s 4s 25 34 mph 1000.5mb 46f 47f
12:50am 4.5ft 5s 4s 27 34 mph 1000.3mb 46f 48f
Wed 04/23 11:50pm 4ft 4s 4s 27 34 mph 999.9mb 46f 49f
10:50pm 3.5ft 5s 4s 22 31 mph 999.5mb 46f 49f
9:50pm 3.5ft 4s 4s 20 27 mph 999.3mb 46f 49f
8:50pm 3ft 4s 4s 22 29 mph 998.7mb 47f 49f
7:50pm 3ft 4s 4s 20 25 mph 998.1mb 47f 49f
6:50pm 3ft 4s 4s 20 22 mph 997.3mb 47f 49f
5:50pm 3ft 4s 3s 22 25 mph 996.5mb 47f 49f
4:50pm 2.5ft 3s 3s 25 31 mph 995.6mb 47f 48f
3:50pm 3ft 4s 3s 18 22 mph 995.1mb 47f 49f
2:50pm 2ft 3s 3s 18 22 mph 994.6mb 47f 49f
1:50pm 1ft 2s 3s 18 22 mph 995mb 47f 49f
12:50pm 1ft 4s 4s 16 22 mph 995mb 47f 48f
11:50am 0.7ft  -  4s  -  2 mph 995.2mb 47f 48f
10:50am 0.7ft  -  4s 2
mph
996mb 47f 47f
9:50am 0.7ft  -  3s 4 7 mph 996.1mb 46f 48f
8:50am 0.7ft  -  4s 20 22 mph 997.5mb 47f 47f
7:50am 1ft 6s 4s 4 7 mph 997mb 47f 47f
6:50am 1ft 9s 4s 4
mph
996.9mb 47f 47f
5:50am 1ft 7s 5s 9
mph
997.1mb 47f 47f
4:50am 0.7ft  -  4s 7 9 mph 997mb 47f 48f
3:50am 0.7ft  -  3s 7 9 mph 997.2mb 46f 48f
2:50am 1ft 2s 3s 11 13 mph 997.7mb 46f 48f
1:50am 1ft 2s 3s 13 16 mph 998.1mb 46f 49f
12:50am 1.3ft 2s 3s 11 13 mph 998.9mb 46f 49f
Tue 04/22 11:50pm 1.3ft 3s 3s 16 18 mph 999.6mb 46f 50f
10:50pm 1.3ft 3s 3s 16 18 mph 1000mb 46f 50f
9:50pm 1ft 2s 3s 16 18 mph 1000.5mb 47f 49f
8:50pm 1ft 3s 3s 13
mph
1000.9mb 47f 49f
7:50pm 1.3ft 3s 3s 11 13 mph 1001.2mb 47f 49f
6:50pm 1.3ft 8s 3s 11 13 mph 1001.3mb 48f 49f
5:50pm 1.3ft 2s 3s 13
mph
1001.8mb 48f 49f
4:50pm 1ft 4s 3s 11 13 mph 1002.1mb 48f 50f
3:50pm 0.7ft  -  3s 11 13 mph 1002.6mb 47f 50f
2:50pm 0.7ft  -  3s 11 13 mph 1003.6mb 47f 49f
1:50pm 0.7ft  -  3s 11
mph
1004.5mb 47f 49f
12:50pm 0.7ft  -  4s 11
mph
1005.2mb 47f 50f
11:50am 0.7ft  -  5s 11
mph
1005.8mb 47f 49f
10:50am 0.7ft  -  5s 7 9 mph 1006.8mb 46f 48f
9:50am 1ft 4s 5s 9 11 mph 1007mb 46f 48f
8:50am 0.7ft  -  5s 7 9 mph 1007.5mb 46f 47f
7:50am 1ft 8s 5s 7
mph
1008mb 46f 48f
6:50am 1ft 8s 4s 4
mph
1008.3mb 46f 48f
5:50am 1ft 7s 5s 4
mph
1008.6mb 46f 47f
4:50am 1ft 7s 5s 2
mph
1009mb 46f 47f
3:50am 0.7ft  -  5s 4 7 mph 1009.4mb 46f 48f
2:50am 0.7ft  -  4s 11
mph
1009.6mb 46f 48f
1:50am 0.7ft  -  4s 7
mph
1010.7mb 45f 48f
12:50am 0.7ft  -  4s 4
mph
1011.8mb 45f 48f
Mon 04/21 11:50pm 0.7ft  -  4s 7
mph
1012.2mb 45f 47f
10:50pm 0.7ft  -  4s 7 9 mph 1012.6mb 46f 47f
9:50pm 1ft 5s 4s 9 11 mph 1013.3mb 46f 47f
8:50pm 0.7ft  -  4s 9
mph
1013.7mb 46f 47f
7:50pm 1ft 7s 4s 9 11 mph 1014.1mb 47f 47f
6:50pm 1ft 4s 4s 11
mph
1014.5mb 48f 48f
5:50pm 1ft 7s 4s 11
mph
1015.2mb 49f 49f
4:50pm 1ft 5s 5s 7 9 mph 1016mb 48f 49f
3:50pm 0.7ft  -  5s 4
mph
1016.8mb 48f 46f
2:50pm 0.3ft  -  4s 2 4 mph 1018mb 47f 45f
1:50pm 0.7ft  -  3s 2
mph
1019.1mb 47f 44f
12:50pm 0.7ft  -  3s 2
mph
1019.9mb 47f 44f
11:50am 0.7ft  -  4s 2
mph
1021mb 46f 44f
10:50am 0.7ft  -  4s 2
mph
1022mb 45f 44f
9:50am 0.7ft  -  4s 2 4 mph 1022.8mb 45f 43f
8:50am 0.7ft  -  4s 2
mph
1023mb 44f 44f
7:50am 1ft 6s 4s 4
mph
1023.4mb 44f 44f
6:50am 1ft 5s 3s 9
mph
1023.4mb 44f 43f
5:50am 1.3ft 3s 3s 9 11 mph 1023.9mb 45f 43f